Time;durP1;ratioP1;P1;durP2;ratioP2;P2;SDS_P1;SDS_P2;PMS_P1;PMS_P2;Temp;Humidity;BMP_temperature;BMP_pressure;BME280_temperature;BME280_humidity;BME280_pressure;Samples;Min_cycle;Max_cycle;Signal;HPM_P1;HPM_P2
2022/12/04 00:02:13;;;;;;;100.43;42.88;;;;;;;1.41;100.00;100189.13;10540973;28;20493;-74
2022/12/04 00:07:14;;;;;;;104.07;44.90;;;;;;;1.38;100.00;100200.34;10522443;28;20565;-74
2022/12/04 00:12:16;;;;;;;105.78;43.70;;;;;;;1.37;100.00;100196.00;10540007;28;20109;-73
2022/12/04 00:17:18;;;;;;;110.68;44.30;;;;;;;1.51;100.00;100198.72;10540106;28;20090;-75
2022/12/04 00:22:20;;;;;;;101.72;42.85;;;;;;;1.34;100.00;100185.66;10522645;28;20044;-74
2022/12/04 00:27:21;;;;;;;106.97;43.28;;;;;;;1.47;100.00;100189.19;10540009;28;20044;-75
2022/12/04 00:32:23;;;;;;;98.53;40.92;;;;;;;1.41;100.00;100183.94;10540540;28;20090;-74
2022/12/04 00:37:25;;;;;;;109.75;45.15;;;;;;;1.23;100.00;100188.13;10539334;28;20090;-75
2022/12/04 00:42:26;;;;;;;104.28;41.95;;;;;;;1.18;100.00;100184.63;10539790;28;20039;-75
2022/12/04 00:47:28;;;;;;;107.10;44.58;;;;;;;1.11;100.00;100189.78;10539382;28;20482;-74
2022/12/04 00:52:30;;;;;;;107.13;43.80;;;;;;;1.14;100.00;100182.00;10539431;28;20452;-74
2022/12/04 00:57:31;;;;;;;96.10;41.70;;;;;;;1.09;100.00;100181.97;10539648;28;20078;-74
2022/12/04 01:02:33;;;;;;;110.97;46.22;;;;;;;1.36;100.00;100177.88;10520950;28;20056;-75
2022/12/04 01:07:35;;;;;;;99.10;43.58;;;;;;;1.34;100.00;100177.88;10539140;28;20040;-74
2022/12/04 01:12:36;;;;;;;101.47;45.63;;;;;;;1.33;100.00;100165.78;10539216;28;20064;-74
2022/12/04 01:17:38;;;;;;;101.80;44.33;;;;;;;1.35;100.00;100168.38;10520547;28;20444;-74
2022/12/04 01:22:40;;;;;;;104.13;45.50;;;;;;;1.22;100.00;100170.00;10541648;28;20524;-74
2022/12/04 01:27:42;;;;;;;106.15;46.35;;;;;;;1.19;100.00;100164.78;10546255;28;20071;-76
2022/12/04 01:32:43;;;;;;;104.43;45.05;;;;;;;1.29;100.00;100160.56;10546338;28;20040;-74
2022/12/04 01:37:45;;;;;;;102.25;45.13;;;;;;;1.34;100.00;100157.16;10545578;28;20043;-75
2022/12/04 01:42:46;;;;;;;98.25;44.10;;;;;;;1.57;100.00;100151.25;10545698;28;20493;-74
2022/12/04 01:47:48;;;;;;;105.80;46.05;;;;;;;1.44;100.00;100151.19;10527253;28;20114;-74
2022/12/04 01:52:51;;;;;;;104.57;45.10;;;;;;;1.48;100.00;100131.34;10545298;28;20557;-75
2022/12/04 01:57:52;;;;;;;102.95;42.28;;;;;;;1.47;100.00;100121.84;10526999;28;20036;-74
2022/12/04 02:02:54;;;;;;;101.57;44.40;;;;;;;1.60;100.00;100115.03;10526525;28;20086;-74
2022/12/04 02:08:01;;;;;;;110.03;44.97;;;;;;;1.52;100.00;100117.56;10544871;28;20040;-73
2022/12/04 02:13:16;;;;;;;98.53;44.43;;;;;;;1.45;100.00;100108.00;10545498;28;20044;-74
2022/12/04 02:18:31;;;;;;;95.97;43.35;;;;;;;1.47;100.00;100103.72;10544762;28;20048;-74
2022/12/04 02:23:38;;;;;;;97.72;41.95;;;;;;;1.64;100.00;100111.56;10544480;28;20044;-75
2022/12/04 02:28:46;;;;;;;100.72;41.45;;;;;;;1.52;100.00;100110.66;10526280;28;20044;-75
2022/12/04 02:33:59;;;;;;;102.78;45.10;;;;;;;1.54;100.00;100110.66;10543885;28;20048;-74
2022/12/04 02:39:06;;;;;;;105.70;45.50;;;;;;;1.31;100.00;100101.88;10526792;28;20044;-74
2022/12/04 02:44:20;;;;;;;114.00;46.40;;;;;;;1.42;100.00;100095.91;10525500;28;20063;-75
2022/12/04 02:49:36;;;;;;;109.60;45.85;;;;;;;1.56;100.00;100105.50;10525625;28;20055;-75
2022/12/04 02:54:44;;;;;;;102.40;44.10;;;;;;;1.26;100.00;100107.03;10526702;28;20483;-74
2022/12/04 02:59:49;;;;;;;102.05;45.58;;;;;;;1.24;100.00;100104.44;10543209;28;20032;-74
2022/12/04 03:04:54;;;;;;;105.95;45.65;;;;;;;1.21;100.00;100100.94;10524364;28;20497;-73
2022/12/04 03:10:08;;;;;;;113.90;47.70;;;;;;;1.27;100.00;100083.72;10525374;28;20398;-74
2022/12/04 03:15:42;;;;;;;116.05;48.60;;;;;;;1.33;100.00;100084.59;10542088;28;20432;-73
2022/12/04 03:20:47;;;;;;;110.40;48.53;;;;;;;1.34;100.00;100082.06;10524698;28;20058;-74
2022/12/04 03:25:59;;;;;;;122.82;50.28;;;;;;;1.42;100.00;100089.88;10542169;28;20036;-74
2022/12/04 03:31:05;;;;;;;115.07;48.53;;;;;;;1.40;100.00;100091.56;10524131;28;20044;-75
2022/12/04 03:36:18;;;;;;;83.45;36.72;;;;;;;1.38;100.00;100095.88;10541631;28;20036;-74
2022/12/04 03:41:45;;;;;;;111.22;48.50;;;;;;;1.30;100.00;100092.38;10542398;28;20040;-74
2022/12/04 03:47:15;;;;;;;119.07;50.90;;;;;;;1.31;100.00;100089.78;10541538;28;20040;-74
2022/12/04 03:52:31;;;;;;;106.60;45.70;;;;;;;1.47;100.00;100094.22;10541280;28;20043;-74
2022/12/04 03:57:39;;;;;;;108.97;48.83;;;;;;;1.49;100.00;100095.06;10523534;28;20486;-72
2022/12/04 04:02:56;;;;;;;102.03;46.38;;;;;;;1.59;100.00;100093.41;10540760;28;20401;-72
2022/12/04 04:08:24;;;;;;;;;;;;;;;1.56;100.00;100105.50;10540757;28;20051;-72
2022/12/04 04:24:24;;;;;;;114.22;49.35;;;;;;;1.40;100.00;100100.19;10540616;28;20040;-72
2022/12/04 04:29:26;;;;;;;115.32;51.53;;;;;;;1.51;100.00;100106.34;10542046;28;20040;-72
2022/12/04 04:34:47;;;;;;;120.32;51.50;;;;;;;1.77;100.00;100109.06;10522499;28;20044;-73
2022/12/04 04:40:13;;;;;;;116.53;51.80;;;;;;;1.49;100.00;100104.56;10539948;28;20098;-72
2022/12/04 04:45:23;;;;;;;118.80;53.55;;;;;;;1.47;100.00;100091.63;10522097;28;20048;-72
2022/12/04 04:50:26;;;;;;;117.03;50.53;;;;;;;1.51;100.00;100093.38;10541234;28;20044;-72
2022/12/04 04:55:33;;;;;;;123.95;53.25;;;;;;;1.51;100.00;100098.56;10524090;28;20044;-72
2022/12/04 05:00:35;;;;;;;121.00;54.00;;;;;;;1.46;100.00;100092.50;10550400;28;20040;-73
2022/12/04 05:05:37;;;;;;;124.10;52.95;;;;;;;1.56;100.00;100085.63;10548102;28;20471;-72
2022/12/04 05:10:39;;;;;;;118.45;52.45;;;;;;;1.63;100.00;100083.94;10547176;28;20094;-72
2022/12/04 05:15:41;;;;;;;121.70;52.75;;;;;;;1.65;100.00;100090.00;10546603;28;20435;-71
2022/12/04 05:20:42;;;;;;;113.85;51.88;;;;;;;1.63;100.00;100082.19;10546984;28;20048;-73
2022/12/04 05:25:44;;;;;;;117.15;51.90;;;;;;;1.61;100.00;100086.53;10529142;28;20130;-73
2022/12/04 05:30:54;;;;;;;118.80;54.10;;;;;;;1.59;100.00;100082.19;10527985;28;20047;-73
2022/12/04 05:36:01;;;;;;;104.93;49.70;;;;;;;1.67;100.00;100076.16;10546204;28;20040;-73
2022/12/04 05:41:04;;;;;;;111.28;51.67;;;;;;;1.65;100.00;100077.91;10528069;28;20051;-72
2022/12/04 05:46:07;;;;;;;115.32;51.72;;;;;;;1.47;100.00;100065.72;10528121;28;20386;-73
2022/12/04 05:51:10;;;;;;;121.07;52.95;;;;;;;1.81;100.00;100067.59;10545531;28;20460;-73
2022/12/04 05:56:11;;;;;;;110.32;50.90;;;;;;;1.78;100.00;100071.06;10546000;28;20040;-72
2022/12/04 06:01:22;;;;;;;113.78;52.60;;;;;;;1.61;100.00;100057.16;10545216;28;20048;-72
2022/12/04 06:06:25;;;;;;;113.32;49.97;;;;;;;1.55;100.00;100058.00;10510324;28;20119;-72
2022/12/04 06:11:30;;;;;;;116.38;51.50;;;;;;;1.43;100.00;100056.19;10546509;28;20048;-73
2022/12/04 06:16:35;;;;;;;120.68;53.67;;;;;;;1.65;100.00;100056.31;10510474;28;20428;-73
2022/12/04 06:21:39;;;;;;;113.03;50.92;;;;;;;1.82;100.00;100064.16;10544666;28;20044;-73
2022/12/04 06:26:41;;;;;;;128.32;56.10;;;;;;;1.80;100.00;100063.28;10544236;28;20089;-74
2022/12/04 06:32:03;;;;;;;117.47;52.70;;;;;;;1.67;100.00;100073.59;10545014;28;20036;-73
2022/12/04 06:37:05;;;;;;;112.25;52.60;;;;;;;1.95;100.00;100081.50;10543995;28;20040;-73
2022/12/04 06:42:07;;;;;;;114.82;53.08;;;;;;;1.79;100.00;100071.91;10544203;28;20044;-72
2022/12/04 06:47:08;;;;;;;107.57;51.53;;;;;;;2.00;100.00;100080.66;10525911;28;20127;-73
2022/12/04 06:52:10;;;;;;;110.72;50.35;;;;;;;2.03;100.00;100087.56;10545009;28;20048;-73
2022/12/04 06:57:12;;;;;;;121.15;54.88;;;;;;;1.98;100.00;100084.94;10544036;28;20036;-73
2022/12/04 07:02:14;;;;;;;109.10;52.28;;;;;;;1.98;100.00;100090.13;10543492;28;20044;-73
2022/12/04 07:07:16;;;;;;;107.70;49.83;;;;;;;2.08;100.00;100090.16;10525048;28;20068;-73
2022/12/04 07:12:17;;;;;;;112.85;52.25;;;;;;;1.94;100.00;100090.13;10543411;28;20071;-73
2022/12/04 07:17:19;;;;;;;114.60;52.40;;;;;;;1.92;100.00;100084.94;10525292;28;20044;-73
2022/12/04 07:22:21;;;;;;;115.20;51.67;;;;;;;1.91;100.00;100082.34;10542035;28;20094;-73
2022/12/04 07:27:23;;;;;;;108.43;50.88;;;;;;;1.97;100.00;100087.53;10541997;28;20036;-72
2022/12/04 07:32:24;;;;;;;119.18;54.15;;;;;;;1.91;100.00;100077.16;10524313;28;20444;-72
2022/12/04 07:37:26;;;;;;;124.38;56.00;;;;;;;2.14;100.00;100088.47;10523209;28;20086;-74
2022/12/04 07:42:28;;;;;;;112.55;53.85;;;;;;;2.09;100.00;100079.81;10523725;28;20054;-75
2022/12/04 07:47:29;;;;;;;118.55;54.97;;;;;;;2.28;100.00;100078.13;10541687;28;20462;-75
2022/12/04 07:52:39;;;;;;;113.80;54.28;;;;;;;2.13;100.00;100080.69;10523893;28;20044;-74
2022/12/04 07:57:41;;;;;;;122.43;57.00;;;;;;;2.14;100.00;100079.84;10542198;28;20082;-75
2022/12/04 08:02:43;;;;;;;127.13;58.15;;;;;;;2.06;100.00;100082.38;10541287;28;20043;-76
2022/12/04 08:07:44;;;;;;;120.70;55.72;;;;;;;1.95;100.00;100074.59;10540759;28;20047;-75
2022/12/04 08:12:46;;;;;;;130.75;59.03;;;;;;;2.05;100.00;100079.81;10523047;28;20051;-75
2022/12/04 08:17:48;;;;;;;123.03;55.80;;;;;;;2.07;100.00;100078.94;10540876;28;20036;-76
2022/12/04 08:22:49;;;;;;;118.82;55.85;;;;;;;2.04;100.00;100086.72;10522673;28;20052;-76
2022/12/04 08:27:51;;;;;;;120.20;57.05;;;;;;;2.02;100.00;100084.09;10540106;28;20044;-75
2022/12/04 08:32:53;;;;;;;128.77;59.95;;;;;;;2.13;100.00;100085.88;10545175;28;20058;-74
2022/12/04 08:37:54;;;;;;;139.07;66.00;;;;;;;2.01;100.00;100084.97;10548725;28;20036;-75
2022/12/04 08:42:56;;;;;;;147.32;64.53;;;;;;;2.16;100.00;100078.97;10548730;28;20047;-75
2022/12/04 08:47:58;;;;;;;131.23;60.60;;;;;;;2.16;100.00;100078.09;10549617;28;20086;-75
2022/12/04 08:52:59;;;;;;;136.98;63.70;;;;;;;2.17;100.00;100077.22;10530392;28;20089;-75
2022/12/04 08:58:03;;;;;;;142.13;63.65;;;;;;;2.31;100.00;100078.16;10548179;28;20118;-76
2022/12/04 09:03:05;;;;;;;123.03;58.80;;;;;;;2.73;100.00;100079.94;10547692;28;20551;-75
2022/12/04 09:08:07;;;;;;;124.97;58.10;;;;;;;2.64;100.00;100077.31;10547399;28;20040;-75
2022/12/04 09:13:09;;;;;;;120.07;56.83;;;;;;;2.83;100.00;100073.00;10529433;28;20040;-74
2022/12/04 09:18:11;;;;;;;117.93;55.85;;;;;;;2.90;100.00;100071.28;10547258;28;20115;-75
2022/12/04 09:23:12;;;;;;;124.53;56.92;;;;;;;2.92;100.00;100062.66;10528400;28;20558;-74
2022/12/04 09:28:14;;;;;;;118.63;55.65;;;;;;;3.10;100.00;100074.75;10546683;28;20048;-75
2022/12/04 09:33:16;;;;;;;108.82;54.78;;;;;;;3.04;100.00;100073.00;10529295;28;20106;-75
2022/12/04 09:38:17;;;;;;;111.93;55.53;;;;;;;3.26;100.00;100073.00;10528555;28;20097;-75
2022/12/04 09:43:29;;;;;;;106.55;52.47;;;;;;;3.07;100.00;100073.88;10546999;28;20044;-75
2022/12/04 09:48:39;;;;;;;114.97;54.55;;;;;;;3.22;100.00;100076.44;10546244;28;20400;-74
2022/12/04 09:53:46;;;;;;;114.65;55.35;;;;;;;3.31;100.00;100065.19;10547262;28;20046;-75
2022/12/04 09:59:01;;;;;;;114.03;53.88;;;;;;;3.27;100.00;100064.31;10527530;28;20044;-75
2022/12/04 10:04:03;;;;;;;109.25;52.85;;;;;;;3.51;100.00;100060.81;10527203;28;20153;-75
2022/12/04 10:09:26;;;;;;;104.32;52.30;;;;;;;3.59;100.00;100053.88;10545198;28;20047;-74
2022/12/04 10:14:40;;;;;;;99.88;51.20;;;;;;;3.42;100.00;100058.25;10527466;28;20139;-75
2022/12/04 10:19:54;;;;;;;114.43;54.10;;;;;;;3.41;100.00;100043.50;10545873;28;20044;-76
2022/12/04 10:25:03;;;;;;;104.05;52.10;;;;;;;3.66;100.00;100049.50;10544790;28;20043;-76
2022/12/04 10:30:21;;;;;;;102.22;50.20;;;;;;;3.46;100.00;100045.25;10545132;28;20036;-76
2022/12/04 10:35:29;;;;;;;91.90;49.83;;;;;;;3.55;100.00;100044.34;10544633;28;20052;-75
2022/12/04 10:40:43;;;;;;;101.15;51.60;;;;;;;3.66;100.00;100039.09;10544026;28;20044;-75
2022/12/04 10:45:44;;;;;;;103.18;50.97;;;;;;;3.55;100.00;100028.75;10526656;28;20040;-75
2022/12/04 10:50:46;;;;;;;104.38;52.22;;;;;;;3.56;100.00;100024.41;10543392;28;20040;-74
2022/12/04 10:55:48;;;;;;;104.65;50.95;;;;;;;3.62;100.00;100024.38;10543400;28;20044;-75
2022/12/04 11:01:05;;;;;;;98.88;49.10;;;;;;;3.75;100.00;100023.47;10542919;28;20064;-74
2022/12/04 11:06:09;;;;;;;99.53;51.35;;;;;;;3.85;100.00;100026.88;10542394;28;20072;-74
2022/12/04 11:11:13;;;;;;;127.85;69.85;;;;;;;4.01;100.00;100023.34;10524378;28;20078;-75
2022/12/04 11:16:39;;;;;;;115.45;55.97;;;;;;;3.80;100.00;100032.09;10542770;28;20505;-74
2022/12/04 11:21:40;;;;;;;102.93;53.17;;;;;;;3.80;100.00;100024.31;10543430;28;20040;-76
2022/12/04 11:26:42;;;;;;;115.28;55.30;;;;;;;3.81;100.00;100031.25;10543158;28;20042;-75
2022/12/04 11:31:53;;;;;;;99.95;52.08;;;;;;;3.88;100.00;100022.53;10524743;28;20044;-75
2022/12/04 11:36:56;;;;;;;109.53;55.30;;;;;;;3.97;100.00;100019.88;10542858;28;20094;-75
2022/12/04 11:42:18;;;;;;;108.18;55.78;;;;;;;4.18;100.00;100023.25;10543740;28;20040;-74
2022/12/04 11:47:22;;;;;;;111.45;56.75;;;;;;;4.15;100.00;100021.53;10544204;28;20517;-75
2022/12/04 11:53:06;;;;;;;100.57;52.88;;;;;;;3.94;100.00;100013.84;10524539;28;20102;-75
2022/12/04 11:58:39;;;;;;;102.70;54.70;;;;;;;4.02;100.00;100014.66;10523826;28;20501;-75
2022/12/04 12:04:26;;;;;;;106.85;55.45;;;;;;;4.09;100.00;100012.91;10542631;28;20367;-75
2022/12/04 12:09:35;;;;;;;102.53;52.38;;;;;;;4.17;100.00;100003.31;10537527;28;20097;-75
2022/12/04 12:14:53;;;;;;;107.05;54.60;;;;;;;4.38;100.00;100003.16;10541700;28;20101;-74
2022/12/04 12:20:03;;;;;;;95.90;48.55;;;;;;;4.23;100.00;99993.72;10517043;28;20481;-73
2022/12/04 12:25:10;;;;;;;105.40;54.45;;;;;;;4.17;100.00;99993.78;10539530;28;20489;-75
2022/12/04 12:30:16;;;;;;;117.40;57.92;;;;;;;4.24;100.00;99985.03;10520021;28;20105;-74
2022/12/04 12:35:28;;;;;;;105.65;56.50;;;;;;;4.18;100.00;99973.81;10520162;28;20395;-75
2022/12/04 12:40:42;;;;;;;112.05;56.25;;;;;;;4.23;100.00;99966.84;10538884;28;20040;-75
2022/12/04 12:46:04;;;;;;;106.97;54.42;;;;;;;4.23;100.00;99966.84;10539734;28;20143;-75
2022/12/04 12:51:35;;;;;;;106.00;55.08;;;;;;;4.17;100.00;99959.97;10538298;28;20047;-76
2022/12/04 12:56:43;;;;;;;106.53;54.90;;;;;;;4.41;100.00;99953.69;10532445;28;20059;-75
2022/12/04 13:01:56;;;;;;;100.47;51.78;;;;;;;4.46;100.00;99957.13;10521616;28;20044;-76
2022/12/04 13:07:26;;;;;;;105.38;54.00;;;;;;;4.37;100.00;99949.38;10539182;28;20094;-76
2022/12/04 13:12:34;;;;;;;;;;;;;;;4.24;100.00;99943.41;10520890;28;20070;-76
2022/12/04 13:17:38;;;;;;;98.40;49.13;;;;;;;4.28;100.00;99941.66;10541921;28;19920;-75
2022/12/04 13:23:24;;;;;;;99.10;51.13;;;;;;;4.41;100.00;99932.88;10543924;28;20040;-75
2022/12/04 13:28:54;;;;;;;105.40;53.10;;;;;;;4.54;100.00;99923.22;10359207;28;20046;-75
2022/12/04 13:34:10;;;;;;;99.30;52.22;;;;;;;4.52;100.00;99920.63;10358488;28;20045;-76
2022/12/04 13:39:23;;;;;;;100.88;51.95;;;;;;;4.65;100.00;99926.59;10374038;28;20482;-74
2022/12/04 13:44:26;;;;;;;96.78;49.83;;;;;;;4.61;100.00;99931.84;10358628;28;20062;-75
2022/12/04 13:49:33;;;;;;;92.60;50.30;;;;;;;4.62;100.00;99930.97;10357014;28;20049;-75
2022/12/04 13:54:36;;;;;;;95.70;49.33;;;;;;;4.84;100.00;99934.22;10374897;28;20056;-76
2022/12/04 13:59:39;;;;;;;94.32;48.58;;;;;;;4.59;100.00;99931.84;10522383;28;20048;-76
2022/12/04 14:04:45;;;;;;;94.75;48.92;;;;;;;4.63;100.00;99933.53;10528683;28;20044;-75
2022/12/04 14:09:52;;;;;;;98.43;50.73;;;;;;;4.62;100.00;99949.19;10545871;28;20085;-74
2022/12/04 14:15:20;;;;;;;100.93;50.25;;;;;;;4.48;100.00;99950.19;10542559;28;20386;-74
2022/12/04 14:20:28;;;;;;;102.47;54.10;;;;;;;4.48;100.00;99949.31;10532205;28;20102;-75
2022/12/04 14:25:37;;;;;;;107.28;53.97;;;;;;;4.60;100.00;99956.13;10544764;28;20052;-75
2022/12/04 14:30:39;;;;;;;106.78;53.58;;;;;;;4.78;100.00;99946.44;10543251;28;20040;-75
2022/12/04 14:35:47;;;;;;;99.13;51.92;;;;;;;4.57;100.00;99948.38;10544807;28;20094;-76
2022/12/04 14:40:52;;;;;;;109.97;55.30;;;;;;;4.72;100.00;99953.44;10527011;28;20047;-75
2022/12/04 14:46:00;;;;;;;133.88;75.68;;;;;;;4.59;100.00;99947.47;10526758;28;20052;-76
2022/12/04 14:51:20;;;;;;;113.47;57.05;;;;;;;4.59;100.00;99938.78;10527158;28;20448;-75
2022/12/04 14:56:29;;;;;;;118.35;60.63;;;;;;;4.65;100.00;99939.63;10526360;28;20072;-74
2022/12/04 15:01:37;;;;;;;120.15;61.03;;;;;;;4.65;100.00;99928.31;10543941;28;20040;-76
2022/12/04 15:06:39;;;;;;;130.45;67.78;;;;;;;4.46;100.00;99928.47;10543974;28;20383;-75
2022/12/04 15:17:11;;;;;;;114.70;55.45;;;;;;;4.72;100.00;99917.84;10542967;28;20486;-75
2022/12/04 15:22:26;;;;;;;124.97;64.50;;;;;;;4.74;100.00;99921.31;10544403;28;20455;-76
2022/12/04 15:27:29;;;;;;;199.32;116.13;;;;;;;4.71;100.00;99910.91;10543027;28;20042;-75
2022/12/04 15:32:33;;;;;;;121.55;62.20;;;;;;;4.47;100.00;99903.31;10543410;28;20039;-76
2022/12/04 15:37:35;;;;;;;134.73;68.57;;;;;;;4.55;100.00;99906.72;10542450;28;20044;-76
2022/12/04 15:42:37;;;;;;;144.23;73.75;;;;;;;4.59;100.00;99902.34;10541461;28;20508;-76
2022/12/04 15:47:42;;;;;;;124.53;61.78;;;;;;;4.81;100.00;99906.47;10542138;28;20051;-76
2022/12/04 15:53:06;;;;;;;118.68;55.65;;;;;;;5.06;100.00;99905.31;10541596;28;20036;-77
2022/12/04 15:58:20;;;;;;;132.63;64.82;;;;;;;4.75;100.00;99903.94;10522582;28;20050;-76
2022/12/04 16:03:40;;;;;;;132.68;69.03;;;;;;;4.96;100.00;99898.50;10541472;28;20496;-78
2022/12/04 16:08:45;;;;;;;108.68;53.08;;;;;;;5.13;100.00;99897.44;10541372;28;20068;-75
2022/12/04 16:14:26;;;;;;;119.53;58.95;;;;;;;5.07;100.00;99904.44;10540897;28;20100;-77
2022/12/04 16:19:38;;;;;;;118.45;56.55;;;;;;;5.05;100.00;99910.56;10370752;28;20053;-73
2022/12/04 16:24:41;;;;;;;122.70;58.55;;;;;;;5.01;100.00;99909.72;10370716;28;20061;-75
2022/12/04 16:29:44;;;;;;;125.40;62.13;;;;;;;5.04;100.00;99904.47;10371064;28;20515;-75
2022/12/04 16:34:46;;;;;;;111.38;53.83;;;;;;;5.07;100.00;99898.38;10370159;28;20496;-74
2022/12/04 16:39:49;;;;;;;159.90;76.40;;;;;;;5.11;100.00;99902.66;10353778;28;20054;-75
2022/12/04 16:44:52;;;;;;;123.82;57.47;;;;;;;4.85;100.00;99899.50;10353660;28;20523;-75
2022/12/04 16:49:53;;;;;;;114.72;57.25;;;;;;;4.71;100.00;99900.50;10488585;28;20048;-74
2022/12/04 16:54:55;;;;;;;123.60;57.67;;;;;;;4.75;100.00;99899.59;10546794;28;20416;-76
2022/12/04 17:00:04;;;;;;;119.45;57.63;;;;;;;4.71;100.00;99902.25;10531348;28;20051;-75
2022/12/04 17:05:06;;;;;;;113.60;55.63;;;;;;;4.92;100.00;99898.56;10547474;28;20121;-75
2022/12/04 17:10:07;;;;;;;108.65;51.75;;;;;;;5.21;100.00;99893.84;10546858;28;20040;-74
2022/12/04 17:15:11;;;;;;;104.28;52.97;;;;;;;4.88;100.00;99902.06;10528125;28;20048;-74
2022/12/04 17:20:16;;;;;;;104.65;52.10;;;;;;;4.96;100.00;99888.09;10546075;28;20040;-75
2022/12/04 17:25:17;;;;;;;97.15;50.03;;;;;;;5.01;100.00;99891.50;10529252;28;20440;-75
2022/12/04 17:30:19;;;;;;;98.28;49.35;;;;;;;5.09;100.00;99890.53;10547199;28;20044;-75
2022/12/04 17:35:21;;;;;;;98.25;51.15;;;;;;;5.23;100.00;99891.25;10546267;28;20051;-75
2022/12/04 17:40:22;;;;;;;106.05;55.90;;;;;;;5.20;100.00;99884.31;10546166;28;20050;-75
2022/12/04 17:45:24;;;;;;;106.82;53.50;;;;;;;5.31;100.00;99884.16;10528452;28;20448;-75
2022/12/04 17:50:26;;;;;;;130.75;68.20;;;;;;;5.26;100.00;99881.63;10527350;28;20044;-75
2022/12/04 17:55:27;;;;;;;121.20;60.42;;;;;;;5.14;100.00;99889.63;10546470;28;20102;-74
2022/12/04 18:00:29;;;;;;;106.50;57.00;;;;;;;4.87;100.00;99887.28;10527947;28;20510;-76
2022/12/04 18:05:31;;;;;;;96.25;47.85;;;;;;;4.74;100.00;99879.63;10544412;28;20131;-76
2022/12/04 18:10:33;;;;;;;113.53;58.55;;;;;;;4.70;100.00;99879.69;10544847;28;20044;-76
2022/12/04 18:15:35;;;;;;;222.18;122.75;;;;;;;4.93;100.00;99882.91;10545336;28;20036;-75
2022/12/04 18:20:38;;;;;;;129.38;71.05;;;;;;;4.87;100.00;99888.19;10545139;28;20036;-76
2022/12/04 18:25:39;;;;;;;120.97;63.15;;;;;;;4.98;100.00;99881.09;10546256;28;20043;-75
2022/12/04 18:30:41;;;;;;;83.75;42.80;;;;;;;5.23;100.00;99875.59;10547199;28;20044;-76
2022/12/04 18:35:53;;;;;;;68.18;41.05;;;;;;;5.42;100.00;99871.00;10546441;28;20052;-75
2022/12/04 18:41:01;;;;;;;75.97;40.97;;;;;;;5.36;100.00;99882.38;10528210;28;20044;-74
2022/12/04 18:46:05;;;;;;;93.32;46.72;;;;;;;5.12;100.00;99874.88;10545617;28;20036;-76
2022/12/04 18:51:16;;;;;;;96.18;48.13;;;;;;;4.97;100.00;99876.78;10545685;28;20482;-76
2022/12/04 18:56:18;;;;;;;103.32;51.70;;;;;;;4.65;100.00;99868.44;10544645;28;20036;-75
2022/12/04 19:01:19;;;;;;;93.38;46.53;;;;;;;4.88;100.00;99879.50;10525143;28;20032;-75
2022/12/04 19:06:27;;;;;;;90.00;45.65;;;;;;;4.89;100.00;99878.59;10543490;28;20044;-75
2022/12/04 19:11:29;;;;;;;;;;;;;;;4.67;100.00;99879.72;10544027;28;20040;-74
2022/12/04 19:16:31;;;;;;;90.13;44.75;;;;;;;4.87;100.00;99876.88;10544107;28;20034;-76
2022/12/04 19:21:33;;;;;;;78.35;40.25;;;;;;;5.04;100.00;99875.81;10526826;28;20394;-76
2022/12/04 19:26:35;;;;;;;73.50;41.42;;;;;;;4.99;100.00;99872.41;10525079;28;20064;-76
2022/12/04 19:31:37;;;;;;;68.70;40.53;;;;;;;4.85;100.00;99879.50;10543221;28;20464;-76
2022/12/04 19:36:40;;;;;;;36.05;28.40;;;;;;;5.23;100.00;99879.06;10542444;28;20130;-75
2022/12/04 19:41:42;;;;;;;23.88;21.73;;;;;;;5.46;100.00;99877.91;10523608;28;20040;-74
2022/12/04 19:46:43;;;;;;;20.52;18.95;;;;;;;5.89;98.35;99879.88;10542264;28;20036;-75
2022/12/04 19:51:47;;;;;;;21.30;19.73;;;;;;;5.91;98.21;99865.94;10543661;28;20032;-76
2022/12/04 19:56:51;;;;;;;19.42;17.77;;;;;;;6.03;96.52;99863.19;10545415;28;20040;-75
2022/12/04 20:01:53;;;;;;;19.35;17.85;;;;;;;6.14;95.64;99869.97;10545298;28;20042;-76
2022/12/04 20:06:54;;;;;;;20.75;19.25;;;;;;;6.07;95.39;99877.03;10526780;28;20044;-76
2022/12/04 20:11:56;;;;;;;19.35;17.95;;;;;;;6.20;94.69;99878.56;10540574;28;20071;-78
2022/12/04 20:17:00;;;;;;;24.77;22.50;;;;;;;6.00;95.44;99883.22;10483137;28;20049;-76
2022/12/04 20:22:03;;;;;;;21.33;19.52;;;;;;;6.06;95.91;99880.50;10504723;28;20406;-77
2022/12/04 20:27:05;;;;;;;19.02;17.33;;;;;;;6.13;94.48;99876.94;10530018;28;20036;-77
2022/12/04 20:32:07;;;;;;;25.88;23.23;;;;;;;6.01;95.46;99877.97;10551391;28;20094;-75
2022/12/04 20:37:09;;;;;;;26.45;22.90;;;;;;;5.98;95.74;99882.41;10532665;28;20050;-76
2022/12/04 20:42:14;;;;;;;101.88;45.40;;;;;;;6.12;94.87;99880.44;10552112;28;20375;-77
2022/12/04 20:47:16;;;;;;;21.92;20.20;;;;;;;6.39;92.83;99876.50;10536866;28;20048;-76
2022/12/04 20:52:19;;;;;;;19.10;17.45;;;;;;;6.22;94.46;99878.53;10554380;28;20074;-76
2022/12/04 20:57:22;;;;;;;19.02;17.52;;;;;;;6.28;93.44;99870.59;10520597;28;20055;-75
2022/12/04 21:02:24;;;;;;;19.73;17.98;;;;;;;6.34;93.19;99864.44;10555695;28;20042;-77
2022/12/04 21:07:26;;;;;;;18.30;16.83;;;;;;;6.23;94.09;99859.38;10534084;28;20080;-76
2022/12/04 21:18:01;;;;;;;26.13;23.52;;;;;;;5.99;94.34;99868.47;10495295;28;20464;-77
2022/12/04 21:23:03;;;;;;;27.08;24.23;;;;;;;5.78;94.81;99849.63;10515360;28;20449;-76
2022/12/04 21:28:05;;;;;;;27.45;24.52;;;;;;;5.54;96.20;99858.66;10551770;28;20089;-75
2022/12/04 21:33:07;;;;;;;28.35;25.13;;;;;;;5.59;97.16;99848.19;10531669;28;20052;-76
2022/12/04 21:38:08;;;;;;;27.98;25.10;;;;;;;5.38;98.31;99853.69;10548512;28;20035;-76
2022/12/04 21:43:10;;;;;;;26.27;23.55;;;;;;;5.39;98.38;99840.63;10531391;28;20118;-76
2022/12/04 21:48:12;;;;;;;25.23;22.88;;;;;;;5.35;99.10;99832.88;10531460;28;20044;-74
2022/12/04 21:53:14;;;;;;;21.60;19.90;;;;;;;5.34;100.00;99824.19;10548005;28;20495;-75
2022/12/04 21:58:17;;;;;;;19.10;17.60;;;;;;;5.72;98.15;99822.78;10549059;28;20474;-77
2022/12/04 22:03:19;;;;;;;18.35;16.95;;;;;;;6.06;94.80;99833.53;10530728;28;20044;-77
2022/12/04 22:08:20;;;;;;;15.77;14.52;;;;;;;6.24;93.13;99830.66;10547710;28;20040;-75
2022/12/04 22:13:23;;;;;;;16.25;14.95;;;;;;;6.03;93.99;99838.84;10528309;28;20052;-76
2022/12/04 22:18:24;;;;;;;14.75;13.55;;;;;;;6.22;92.53;99835.03;10545886;28;20094;-73
2022/12/04 22:23:26;;;;;;;13.63;12.43;;;;;;;6.29;91.86;99825.34;10544785;28;20044;-73
2022/12/04 22:28:28;;;;;;;13.30;12.30;;;;;;;6.35;91.35;99825.22;10544348;28;20040;-73
2022/12/04 22:33:30;;;;;;;14.02;12.95;;;;;;;6.36;91.19;99832.16;10544757;28;20074;-73
2022/12/04 22:38:32;;;;;;;13.30;12.20;;;;;;;6.39;91.23;99839.09;10544820;28;20507;-73
2022/12/04 22:43:53;;;;;;;14.15;13.02;;;;;;;6.41;91.73;99840.78;10525678;28;20105;-73
2022/12/04 22:48:54;;;;;;;13.27;12.18;;;;;;;6.40;91.96;99836.44;10525392;28;20090;-73
2022/12/04 22:53:57;;;;;;;13.75;12.70;;;;;;;6.38;92.94;99837.38;10543479;28;20048;-72
2022/12/04 22:58:59;;;;;;;14.45;13.35;;;;;;;6.29;94.66;99830.56;10543038;28;20117;-72
2022/12/04 23:04:02;;;;;;;13.90;12.88;;;;;;;6.11;96.14;99823.91;10543018;28;20040;-73
2022/12/04 23:09:07;;;;;;;14.25;13.25;;;;;;;6.29;96.66;99826.22;10542858;28;20039;-73
2022/12/04 23:14:13;;;;;;;14.85;13.55;;;;;;;6.11;97.21;99830.84;10543177;28;20039;-73
2022/12/04 23:19:17;;;;;;;14.23;13.23;;;;;;;5.95;99.20;99835.50;10524111;28;20039;-73